Time;durP1;ratioP1;P1;durP2;ratioP2;P2;SDS_P1;SDS_P2;PMS_P1;PMS_P2;Temp;Humidity;BMP_temperature;BMP_pressure;BME280_temperature;BME280_humidity;BME280_pressure;Samples;Min_cycle;Max_cycle;Signal;HPM_P1;HPM_P2
2022/11/28 00:01:52;;;;;;;;;6.25;5.00;;;;;6.99;96.47;100150.13;5901007;24;45326;-91
2022/11/28 00:04:24;;;;;;;;;8.00;8.00;;;;;6.96;97.14;100133.53;5903018;24;47449;-90
2022/11/28 00:06:57;;;;;;;;;8.75;7.00;;;;;8.27;97.08;100351.00;5927526;24;45592;-90
2022/11/28 00:09:24;;;;;;;;;8.00;7.00;;;;;7.90;97.46;100272.56;5933419;24;44845;-89
2022/11/28 00:11:53;;;;;;;;;4.25;4.25;;;;;8.30;97.65;100352.72;5928598;23;45487;-90
2022/11/28 00:15:04;;;;;;;;;7.75;7.00;;;;;7.28;97.42;100169.91;5965140;23;45461;-90
2022/11/28 00:17:39;;;;;;;;;9.00;7.75;;;;;8.33;97.71;100313.19;5956488;23;45395;-91
2022/11/28 00:20:11;;;;;;;;;8.75;8.00;;;;;7.33;97.98;100154.06;5968871;23;45402;-91
2022/11/28 00:22:38;;;;;;;;;10.00;6.25;;;;;7.23;97.73;100138.44;6013523;23;45225;-90
2022/11/28 00:25:07;;;;;;;;;7.00;4.75;;;;;7.71;97.68;100223.69;5989520;23;47645;-92
2022/11/28 00:27:41;;;;;;;;;5.00;4.75;;;;;8.04;98.10;100266.22;6014373;23;45241;-91
2022/11/28 00:30:10;;;;;;;;;6.75;5.25;;;;;7.67;98.12;100206.22;6063965;23;45377;-88
2022/11/28 00:35:25;;;;;;;;;6.50;6.50;;;;;6.99;98.54;100076.53;6196019;23;45484;-91
2022/11/28 00:37:51;;;;;;;;;8.25;6.00;;;;;7.60;97.86;100190.50;6170741;23;45331;-90
2022/11/28 00:40:16;;;;;;;;;8.50;7.00;;;;;7.16;97.97;100105.22;6172530;23;44695;-91
2022/11/28 00:42:45;;;;;;;;;7.00;7.00;;;;;8.44;98.52;100326.22;6164431;23;45228;-90
2022/11/28 00:45:20;;;;;;;;;5.50;5.25;;;;;7.78;98.30;100199.91;6157097;23;47563;-90
2022/11/28 00:47:48;;;;;;;;;2.00;2.00;;;;;8.44;98.41;100316.56;6158021;23;45320;-90
2022/11/28 00:50:39;;;;;;;;;;;;;;;;;;;;;
2022/11/28 00:53:19;;;;;;;;;7.00;4.50;;;;;7.67;98.40;100172.00;6187258;23;68732;-91
2022/11/28 00:55:51;;;;;;;;;4.75;4.75;;;;;6.85;98.81;100036.47;6164542;23;47642;-91
2022/11/28 00:58:18;;;;;;;;;6.50;6.00;;;;;8.46;98.65;100309.50;6161769;23;45482;-92
2022/11/28 01:00:59;;;;;;;;;7.75;7.75;;;;;7.38;98.34;100115.44;6192822;23;45215;-91
2022/11/28 01:03:35;;;;;;;;;10.25;7.75;;;;;8.47;99.02;100306.00;6178962;23;44838;-88
2022/11/28 01:06:18;;;;;;;;;7.50;5.75;;;;;7.46;98.22;100134.63;6173042;23;47086;-90
2022/11/28 01:09:13;;;;;;;;;4.50;4.50;;;;;7.77;98.48;100181.50;6170542;23;44644;-91
2022/11/28 01:11:40;;;;;;;;;5.00;4.25;;;;;6.97;98.30;100040.66;6164714;23;45173;-92
2022/11/28 01:14:14;;;;;;;;;6.00;6.00;;;;;8.09;98.81;100233.69;6164042;23;44895;-91
2022/11/28 01:16:45;;;;;;;;;4.50;4.50;;;;;6.89;98.71;100043.38;6159324;23;46955;-91
2022/11/28 01:19:15;;;;;;;;;7.75;4.00;;;;;8.46;98.84;100316.56;6162565;23;45382;-91
2022/11/28 01:21:51;;;;;;;;;4.25;4.25;;;;;8.46;98.90;100312.13;6166706;23;45172;-90
2022/11/28 01:24:26;;;;;;;;;7.00;4.00;;;;;7.53;98.66;100156.44;6170002;23;45271;-91
2022/11/28 01:26:54;;;;;;;;;7.75;7.75;;;;;7.12;98.62;100087.75;6171649;23;47608;-91
2022/11/28 01:29:30;;;;;;;;;5.00;5.00;;;;;8.48;99.05;100310.34;6169567;23;45303;-91
2022/11/28 01:32:10;;;;;;;;;4.25;4.25;;;;;8.35;98.95;100279.78;6155983;23;45429;-91
2022/11/28 01:35:19;;;;;;;;;5.25;4.00;;;;;8.51;98.89;100312.06;6183923;23;45413;-91
2022/11/28 01:37:59;;;;;;;;;9.00;7.75;;;;;7.28;98.64;100117.34;6167739;23;46833;-91
2022/11/28 01:40:30;;;;;;;;;9.75;7.00;;;;;8.53;99.18;100329.59;6160914;23;45315;-91
2022/11/28 01:43:13;;;;;;;;;8.75;7.00;;;;;8.24;99.25;100274.69;6160178;23;45338;-90
2022/11/28 01:45:50;;;;;;;;;10.75;7.75;;;;;8.31;98.97;100286.00;6167335;23;45260;-92
2022/11/28 01:48:46;;;;;;;;;5.00;5.00;;;;;6.57;98.68;99993.03;6159131;23;47056;-91
2022/11/28 01:51:21;;;;;;;;;8.00;5.00;;;;;7.08;99.08;100086.94;6044714;23;45348;-91
2022/11/28 01:53:56;;;;;;;;;7.50;6.00;;;;;7.54;99.20;100168.69;6050986;23;45369;-91
2022/11/28 01:56:29;;;;;;;;;8.00;7.00;;;;;7.20;99.08;100114.81;6045859;23;44795;-90
2022/11/28 01:59:11;;;;;;;;;9.25;8.00;;;;;8.21;99.24;100269.47;6044785;23;47106;-91
2022/11/28 02:01:48;;;;;;;;;8.25;7.75;;;;;8.03;99.56;100240.78;6075992;23;45374;-91
2022/11/28 02:04:15;;;;;;;;;9.75;8.00;;;;;7.24;99.27;100107.75;6072688;23;45346;-92
2022/11/28 02:06:43;;;;;;;;;6.50;6.50;;;;;7.28;99.35;100110.31;6074047;23;45339;-90
2022/11/28 02:09:13;;;;;;;;;8.00;7.75;;;;;7.27;99.20;100107.69;6074555;23;47279;-91
2022/11/28 02:12:19;;;;;;;;;9.50;8.00;;;;;8.67;99.43;100339.91;6071659;23;45461;-91
2022/11/28 02:15:34;;;;;;;;;8.00;8.00;;;;;8.68;98.95;100333.75;6106081;23;45307;-91
2022/11/28 02:18:19;;;;;;;;;9.00;8.75;;;;;8.48;99.27;100306.84;6069620;23;45533;-91
2022/11/28 02:21:29;;;;;;;;;;;;;;;;;;;;;
2022/11/28 02:24:40;;;;;;;;;8.25;8.25;;;;;8.70;99.16;100318.78;6099330;23;70774;-91
2022/11/28 02:31:13;;;;;;;;;8.00;8.00;;;;;8.07;99.45;100203.88;6184768;23;45198;-91
2022/11/28 02:33:48;;;;;;;;;10.50;9.50;;;;;7.55;99.26;100125.72;6035055;23;46988;-91
2022/11/28 02:36:33;;;;;;;;;9.75;8.75;;;;;8.26;99.30;100253.59;6049178;23;45498;-91
2022/11/28 02:39:41;;;;;;;;;;;;;;;;;;;;;
2022/11/28 02:42:25;;;;;;;;;9.75;9.75;;;;;7.25;99.32;100065.66;6067349;23;68795;-91
2022/11/28 02:45:48;;;;;;;;;;;;;;;;;;;;;
2022/11/28 02:52:44;;;;;;;;;;;;;;;;;;;;;
2022/11/28 02:55:24;;;;;;;;;7.00;6.50;;;;;8.69;99.37;100297.72;5979185;23;69875;-91
2022/11/28 02:57:56;;;;;;;;;9.25;7.25;;;;;7.96;99.42;100161.94;5979579;23;47168;-90
2022/11/28 03:00:32;;;;;;;;;8.25;8.25;;;;;8.30;100.00;100218.44;5982181;23;45486;-91
2022/11/28 03:03:22;;;;;;;;;8.75;8.00;;;;;8.66;99.91;100288.09;5959190;23;45368;-91
2022/11/28 03:06:04;;;;;;;;;10.00;9.00;;;;;8.16;99.73;100219.50;5968560;23;44911;-90
2022/11/28 03:08:59;;;;;;;;;7.50;7.25;;;;;8.25;99.91;100215.00;5970481;23;47255;-91
2022/11/28 03:11:42;;;;;;;;;8.75;8.75;;;;;8.64;99.79;100283.75;6040901;23;45324;-90
2022/11/28 03:14:29;;;;;;;;;11.00;9.25;;;;;8.64;99.95;100275.84;6120935;23;45149;-91
2022/11/28 03:17:26;;;;;;;;;9.00;9.00;;;;;6.61;99.07;99948.34;6125150;23;45201;-92
2022/11/28 03:20:06;;;;;;;;;8.25;7.50;;;;;8.35;99.21;100219.22;6121954;23;47381;-90
2022/11/28 03:23:21;;;;;;;;;7.50;7.50;;;;;7.54;99.38;100090.66;6133593;23;45313;-90
2022/11/28 03:26:36;;;;;;;;;10.25;10.00;;;;;8.06;99.78;100203.88;6056036;23;45387;-90
2022/11/28 03:29:24;;;;;;;;;9.25;9.00;;;;;7.69;99.72;100134.28;6090628;23;45384;-90
2022/11/28 03:32:00;;;;;;;;;9.50;8.00;;;;;8.61;99.93;100281.16;6087025;23;46556;-91
2022/11/28 03:34:33;;;;;;;;;9.75;8.00;;;;;7.03;100.00;100015.19;6125206;23;45192;-90
2022/11/28 03:37:32;;;;;;;;;8.75;8.75;;;;;7.68;99.79;100131.66;6104008;23;45296;-90
2022/11/28 03:40:09;;;;;;;;;11.00;9.25;;;;;7.44;100.00;100104.84;6067012;23;45395;-91
2022/11/28 03:42:50;;;;;;;;;9.50;8.50;;;;;8.66;100.00;100305.69;6125653;23;47158;-91
2022/11/28 03:46:06;;;;;;;;;14.50;9.50;;;;;8.17;99.92;100223.03;6079960;23;45214;-90
2022/11/28 03:49:16;;;;;;;;;11.50;10.00;;;;;7.01;99.76;100016.09;6078173;23;45492;-92
2022/11/28 03:52:13;;;;;;;;;9.75;9.50;;;;;8.69;100.00;100285.41;5994414;23;45313;-90
2022/11/28 03:55:32;;;;;;;;;12.25;9.00;;;;;8.69;100.00;100280.16;6019370;23;45355;-91
2022/11/28 03:58:33;;;;;;;;;8.00;8.00;;;;;7.89;100.00;100138.38;6019229;23;45496;-90
2022/11/28 04:01:46;;;;;;;;;8.25;7.50;;;;;6.85;100.00;99961.13;5987694;23;45192;-91
2022/11/28 04:04:17;;;;;;;;;10.75;10.50;;;;;7.97;100.00;100136.47;5982311;23;45322;-90
2022/11/28 04:07:27;;;;;;;;;8.25;8.25;;;;;8.77;100.00;100273.88;6014872;23;45163;-91
2022/11/28 04:10:22;;;;;;;;;9.00;8.00;;;;;8.77;100.00;100277.38;6023151;23;44776;-91
2022/11/28 04:13:21;;;;;;;;;11.50;9.25;;;;;8.78;100.00;100278.28;5992766;23;45249;-90
2022/11/28 04:16:19;;;;;;;;;9.00;9.00;;;;;8.80;100.00;100292.28;5996490;23;44937;-91
2022/11/28 04:19:01;;;;;;;;;12.00;11.25;;;;;7.85;100.00;100126.13;5986980;23;46707;-91
2022/11/28 04:22:12;;;;;;;;;12.75;11.25;;;;;8.82;100.00;100274.66;5985832;23;45289;-89
2022/11/28 04:24:57;;;;;;;;;;;;;;;;;;;;;
2022/11/28 04:27:32;;;;;;;;;12.50;9.00;;;;;7.35;100.00;100023.44;6140524;23;69239;-91
2022/11/28 04:30:01;;;;;;;;;11.50;10.00;;;;;8.21;100.00;100164.16;6170766;23;47208;-91
2022/11/28 04:33:07;;;;;;;;;7.00;7.00;;;;;8.45;100.00;100206.81;6193786;23;45445;-90
2022/11/28 04:35:41;;;;;;;;;12.75;11.00;;;;;8.65;100.00;100240.72;6167259;23;45712;-90
2022/11/28 04:38:27;;;;;;;;;11.75;10.25;;;;;7.78;100.00;100099.06;6167887;23;45358;-91
2022/11/28 04:41:09;;;;;;;;;8.00;8.00;;;;;7.07;100.00;99984.47;6155609;23;47920;-91
2022/11/28 04:43:56;;;;;;;;;12.25;12.25;;;;;7.30;100.00;100023.53;6162503;23;45207;-92
2022/11/28 04:46:40;;;;;;;;;14.00;11.50;;;;;7.59;100.00;100077.44;6157961;23;45423;-90
2022/11/28 04:49:18;;;;;;;;;10.00;8.75;;;;;7.84;100.00;100114.75;6188520;23;45481;-90
2022/11/28 04:52:07;;;;;;;;;9.75;9.75;;;;;8.70;100.00;100271.34;6158946;23;46759;-91
2022/11/28 04:55:00;;;;;;;;;11.75;9.00;;;;;7.32;100.00;100053.31;6157355;23;45420;-91
2022/11/28 04:58:04;;;;;;;;;10.75;9.50;;;;;8.46;100.00;100233.13;6164247;23;45369;-91
2022/11/28 05:00:48;;;;;;;;;;;;;;;;;;;;;
2022/11/28 05:03:20;;;;;;;;;13.00;10.00;;;;;8.53;100.00;100210.16;6188269;23;74370;-91
2022/11/28 05:08:39;;;;;;;;;10.25;8.50;;;;;7.72;100.00;100078.97;6197477;23;45368;-92
2022/11/28 05:11:13;;;;;;;;;10.75;9.00;;;;;8.56;100.00;100214.53;6168911;23;45571;-90
2022/11/28 05:13:41;;;;;;;;;9.75;8.50;;;;;7.26;100.00;100022.72;6164295;23;46942;-91
2022/11/28 05:16:12;;;;;;;;;13.00;10.50;;;;;8.27;100.00;100190.38;6165744;23;45215;-91
2022/11/28 05:18:46;;;;;;;;;13.00;10.50;;;;;8.09;100.00;100138.03;6160046;23;45306;-91
2022/11/28 05:21:15;;;;;;;;;10.00;8.00;;;;;8.27;100.00;100173.72;6166178;23;45371;-91
2022/11/28 05:24:01;;;;;;;;;8.75;8.00;;;;;7.86;100.00;100097.16;6160471;23;46432;-91
2022/11/28 05:26:40;;;;;;;;;;;;;;;;;;;;;
2022/11/28 05:29:12;;;;;;;;;10.50;8.75;;;;;7.42;100.00;100007.56;6188760;23;67981;-90
2022/11/28 05:31:43;;;;;;;;;9.50;9.50;;;;;7.95;100.00;100097.00;6168546;23;45830;-91
2022/11/28 05:34:12;;;;;;;;;8.25;8.25;;;;;8.20;100.00;100146.63;6195561;23;45370;-91
2022/11/28 05:36:40;;;;;;;;;10.00;9.00;;;;;7.49;100.00;100026.75;6168989;23;45230;-90
2022/11/28 05:39:06;;;;;;;;;8.75;8.00;;;;;8.62;100.00;100202.09;6167359;23;45312;-91
2022/11/28 05:41:34;;;;;;;;;15.25;12.50;;;;;8.62;100.00;100212.63;6161249;23;45446;-91
2022/11/28 05:44:03;;;;;;;;;8.50;5.75;;;;;7.78;100.00;100080.66;6159668;23;46661;-91
2022/11/28 05:46:33;;;;;;;;;14.00;11.50;;;;;7.90;100.00;100093.59;6160126;23;45800;-90
2022/11/28 05:48:59;;;;;;;;;11.00;9.25;;;;;7.25;100.00;99989.44;6166683;23;45173;-89
2022/11/28 05:51:35;;;;;;;;;9.75;9.00;;;;;8.66;100.00;100211.69;6165603;23;45315;-90
2022/11/28 05:54:12;;;;;;;;;8.25;8.25;;;;;8.27;100.00;100142.97;6167910;23;46547;-92
2022/11/28 05:56:47;;;;;;;;;11.50;10.75;;;;;8.92;100.00;100255.16;6165504;23;45352;-91
2022/11/28 05:59:14;;;;;;;;;10.00;9.25;;;;;9.06;100.00;100274.25;6162854;23;45205;-90
2022/11/28 06:02:00;;;;;;;;;12.50;11.25;;;;;7.77;100.00;100063.13;6146716;23;45473;-89
2022/11/28 06:04:35;;;;;;;;;10.50;9.25;;;;;8.33;100.00;100161.31;6173860;23;47458;-90
2022/11/28 06:07:07;;;;;;;;;9.25;9.00;;;;;8.03;100.00;100111.81;6168344;23;45350;-92
2022/11/28 06:09:43;;;;;;;;;10.75;9.75;;;;;8.65;100.00;100222.25;6159551;23;45185;-90
2022/11/28 06:12:12;;;;;;;;;7.25;7.25;;;;;8.49;100.00;100203.25;6157861;23;45238;-90
2022/11/28 06:15:07;;;;;;;;;;;;;;;;;;;;;
2022/11/28 06:18:18;;;;;;;;;13.50;11.50;;;;;8.68;100.00;100245.91;6167702;23;72733;-91
2022/11/28 06:27:50;;;;;;;;;9.50;8.25;;;;;9.00;100.00;100315.66;6098941;23;45419;-91
2022/11/28 06:30:28;;;;;;;;;10.00;9.50;;;;;8.60;100.00;100251.31;6153279;23;45229;-92
2022/11/28 06:33:26;;;;;;;;;;;;;;;;;;;;;
2022/11/28 06:36:05;;;;;;;;;10.00;8.75;;;;;7.90;100.00;100138.34;6104143;23;69153;-91
2022/11/28 06:38:39;;;;;;;;;8.00;7.75;;;;;7.97;100.00;100147.88;6106656;23;45371;-91
2022/11/28 06:41:57;;;;;;;;;;;;;;;;;;;;;
2022/11/28 06:54:19;;;;;;;;;9.00;8.75;;;;;7.62;100.00;100112.47;5985497;23;45217;-92
2022/11/28 06:56:57;;;;;;;;;9.00;9.00;;;;;8.42;100.00;100259.50;5958155;23;45317;-91
2022/11/28 06:59:27;;;;;;;;;10.25;8.75;;;;;7.72;100.00;100123.69;5984501;23;45234;-93
2022/11/28 07:02:00;;;;;;;;;10.75;9.50;;;;;7.72;100.00;100123.69;5968733;23;45343;-91
2022/11/28 07:04:32;;;;;;;;;8.00;6.25;;;;;7.04;100.00;100005.53;5984471;23;45321;-91
2022/11/28 07:07:00;;;;;;;;;8.50;8.50;;;;;8.94;100.00;100331.56;5943264;23;44745;-90
2022/11/28 07:10:15;;;;;;;;;6.75;6.75;;;;;7.37;100.00;100069.03;5962877;23;45187;-90
2022/11/28 07:12:45;;;;;;;;;9.00;8.00;;;;;6.89;100.00;100004.88;5907799;23;46938;-90
2022/11/28 07:15:10;;;;;;;;;12.00;8.75;;;;;8.91;100.00;100332.47;5953023;23;45397;-90
2022/11/28 07:17:39;;;;;;;;;6.50;6.50;;;;;8.30;100.00;100243.00;5936746;23;45345;-91
2022/11/28 07:20:09;;;;;;;;;7.50;5.50;;;;;8.68;100.00;100317.97;5950598;23;45471;-89
2022/11/28 07:22:37;;;;;;;;;9.50;8.75;;;;;8.88;100.00;100343.97;5976757;23;47174;-91
2022/11/28 07:25:29;;;;;;;;;5.25;5.25;;;;;8.61;100.00;100308.41;5958355;23;45391;-90
2022/11/28 07:27:56;;;;;;;;;8.00;7.00;;;;;7.73;100.00;100148.25;5992561;23;45345;-94
2022/11/28 07:30:43;;;;;;;;;10.00;9.00;;;;;7.34;100.00;100071.69;6059919;23;45324;-92
2022/11/28 07:36:27;;;;;;;;;2.25;1.75;;;;;8.84;100.00;100354.59;6075741;23;45253;-90
2022/11/28 07:39:48;;;;;;;;;;;;;;;;;;;;;
2022/11/28 07:49:11;;;;;;;;;6.75;6.75;;;;;7.71;100.00;100161.41;6123541;23;45283;-91
2022/11/28 07:54:48;;;;;;;;;8.25;7.00;;;;;8.05;100.00;100233.72;6172435;23;45160;-92
2022/11/28 08:08:06;;;;;;;;;;;;;;;;;;;;;
2022/11/28 08:31:20;;;;;;;;;6.25;4.25;;;;;9.04;100.00;100384.13;6020490;23;44761;-92
2022/11/28 08:46:32;;;;;;;;;8.00;6.75;;;;;8.67;99.69;100252.97;6185644;22;45381;-92
2022/11/28 08:49:59;;;;;;;;;11.00;11.00;;;;;7.58;99.59;100058.16;6225634;22;47050;-91
2022/11/28 08:53:01;;;;;;;;;9.25;8.00;;;;;9.43;99.83;100373.78;6223705;22;45408;-92
2022/11/28 08:55:31;;;;;;;;;5.25;5.25;;;;;8.12;99.62;100173.09;6232345;22;45333;-94
2022/11/28 08:58:00;;;;;;;;;8.00;6.00;;;;;8.14;100.00;100173.06;6261063;22;44752;-91
2022/11/28 09:00:34;;;;;;;;;7.00;7.00;;;;;8.43;99.45;100193.63;6224091;22;48187;-90
2022/11/28 09:02:59;;;;;;;;;9.50;8.00;;;;;8.73;99.31;100243.22;6226210;22;45350;-91
2022/11/28 09:05:37;;;;;;;;;10.75;9.00;;;;;9.47;100.00;100357.88;6229260;22;45100;-96
2022/11/28 09:08:04;;;;;;;;;5.00;4.00;;;;;9.48;99.60;100383.38;6255582;22;45360;-94
2022/11/28 09:10:29;;;;;;;;;9.25;5.00;;;;;8.97;100.00;100287.56;6253395;22;45401;-89
2022/11/28 09:13:01;;;;;;;;;8.00;6.00;;;;;9.49;100.00;100385.09;6256169;22;44794;-94
2022/11/28 09:15:27;;;;;;;;;8.00;7.75;;;;;9.23;99.45;100328.41;6235876;22;45436;-95
2022/11/28 09:17:53;;;;;;;;;7.50;5.50;;;;;9.15;99.66;100319.78;6239118;22;45166;-95
2022/11/28 09:20:20;;;;;;;;;9.50;7.75;;;;;9.13;99.61;100300.50;6213482;22;47027;-96
2022/11/28 09:22:47;;;;;;;;;9.00;9.00;;;;;8.86;99.24;100250.84;6214161;22;45039;-93
2022/11/28 09:25:13;;;;;;;;;11.25;5.75;;;;;8.77;99.53;100237.00;6242205;22;44557;-95
2022/11/28 09:27:40;;;;;;;;;4.75;4.00;;;;;9.01;99.03;100275.22;6240331;22;44849;-94
2022/11/28 09:30:09;;;;;;;;;6.25;4.00;;;;;9.60;99.61;100372.59;6213990;22;46383;-92
2022/11/28 09:32:35;;;;;;;;;6.75;5.00;;;;;8.95;99.13;100278.81;6237238;22;45391;-93
2022/11/28 09:35:03;;;;;;;;;8.00;3.75;;;;;7.95;98.98;100102.28;6235040;22;45297;-93
2022/11/28 09:37:33;;;;;;;;;9.25;5.75;;;;;8.87;98.91;100259.66;6209516;22;44961;-94
2022/11/28 09:40:00;;;;;;;;;4.00;4.00;;;;;9.70;99.21;100384.72;6236023;22;47173;-95
2022/11/28 09:42:42;;;;;;;;;6.00;6.00;;;;;8.05;98.30;100086.31;6262964;22;45107;-95
2022/11/28 09:45:20;;;;;;;;;10.50;6.25;;;;;9.53;98.42;100348.06;6242976;22;44626;-93
2022/11/28 09:47:51;;;;;;;;;5.75;4.25;;;;;8.68;98.33;100180.94;6239816;22;45274;-94
2022/11/28 09:50:29;;;;;;;;;5.75;5.75;;;;;8.28;98.43;100102.59;6215180;22;46737;-93
2022/11/28 09:53:10;;;;;;;;;4.25;4.25;;;;;10.02;98.03;100388.47;6237558;22;44747;-93
2022/11/28 09:55:45;;;;;;;;;6.25;5.00;;;;;8.61;97.74;100150.31;6236725;22;44639;-94
2022/11/28 09:58:18;;;;;;;;;5.25;4.25;;;;;9.49;97.83;100261.09;6227589;22;45394;-94
2022/11/28 10:01:00;;;;;;;;;3.00;3.00;;;;;9.29;97.55;100204.34;6210068;22;47238;-92
2022/11/28 10:03:45;;;;;;;;;4.75;4.75;;;;;10.54;97.12;100381.22;6264090;22;45202;-94
2022/11/28 10:06:41;;;;;;;;;7.50;5.50;;;;;10.03;96.63;100283.72;6270886;22;44628;-93
2022/11/28 10:10:06;;;;;;;;;2.00;2.00;;;;;9.72;96.55;100197.31;6269338;22;44876;-93
2022/11/28 10:13:05;;;;;;;;;3.75;3.75;;;;;9.15;96.35;100099.16;6150481;23;47195;-94
2022/11/28 10:15:50;;;;;;;;;9.25;5.50;;;;;10.95;96.61;100383.78;6125190;23;45362;-93
2022/11/28 10:18:49;;;;;;;;;5.00;4.25;;;;;9.68;95.64;100130.50;6148117;23;44852;-95
2022/11/28 10:21:43;;;;;;;;;2.75;2.75;;;;;11.46;95.31;100382.47;6153608;23;45430;-90
2022/11/28 10:24:34;;;;;;;;;4.75;3.00;;;;;11.11;94.16;100299.63;6156058;23;45464;-90
2022/11/28 10:27:23;;;;;;;;;3.75;3.75;;;;;10.88;93.31;100200.63;6127595;23;45222;-89
2022/11/28 10:30:26;;;;;;;;;;;;;;;;;;;;;
2022/11/28 10:41:03;;;;;;;;;5.00;4.00;;;;;14.15;88.50;100380.09;6155699;23;44778;-93
2022/11/28 10:46:49;;;;;;;;;8.00;3.25;;;;;13.45;87.11;100210.09;6196978;22;45466;-84
2022/11/28 10:49:46;;;;;;;;;3.75;3.75;;;;;14.47;86.99;100370.03;6210533;22;46312;-85
2022/11/28 10:52:22;;;;;;;;;2.50;2.50;;;;;14.64;87.33;100364.94;6211051;22;45346;-84
2022/11/28 10:55:21;;;;;;;;;4.00;4.00;;;;;14.99;85.99;100362.63;6212294;22;45482;-84
2022/11/28 10:58:09;;;;;;;;;3.00;3.00;;;;;15.43;85.37;100357.22;6182705;22;45319;-84
2022/11/28 11:00:36;;;;;;;;;3.25;3.00;;;;;15.34;84.10;100288.38;6208812;22;45659;-86
2022/11/28 11:03:04;;;;;;;;;4.50;4.00;;;;;15.39;84.00;100254.41;6209921;22;45537;-85
2022/11/28 11:12:19;;;;;;;;;3.50;3.50;;;;;15.47;83.19;100222.09;6164959;23;45220;-94
2022/11/28 11:21:56;;;;;;;;;;;;;;;;;;;;;
2022/11/28 11:24:42;;;;;;;;;6.00;4.50;;;;;17.12;81.48;100384.94;5979472;23;74514;-93
2022/11/28 11:28:00;;;;;;;;;2.00;2.00;;;;;17.36;80.94;100380.19;6027263;23;45208;-93
2022/11/28 11:34:01;;;;;;;;;3.00;3.00;;;;;17.09;79.92;100278.31;5962196;23;45241;-95
2022/11/28 11:39:54;;;;;;;;;5.75;4.00;;;;;17.56;79.70;100368.44;5984190;23;45223;-94
2022/11/28 11:43:03;;;;;;;;;2.75;2.75;;;;;17.78;79.88;100356.66;5968737;23;45590;-93
2022/11/28 11:49:40;;;;;;;;;4.00;2.50;;;;;18.78;78.09;100347.56;5953756;23;46157;-93
2022/11/28 11:52:11;;;;;;;;;4.00;4.00;;;;;19.04;76.60;100347.91;5959458;23;45400;-92
2022/11/28 11:54:39;;;;;;;;;5.00;4.00;;;;;18.14;75.79;100192.47;5955508;23;45398;-90
2022/11/28 11:57:10;;;;;;;;;2.75;2.75;;;;;17.81;76.73;100190.75;5963498;23;45278;-93
2022/11/28 11:59:42;;;;;;;;;4.75;3.50;;;;;17.98;78.50;100282.56;5940080;23;47039;-93
2022/11/28 12:02:22;;;;;;;;;7.00;6.25;;;;;16.57;80.39;100107.53;6000210;23;45250;-94
2022/11/28 12:04:55;;;;;;;;;4.25;4.00;;;;;17.17;80.18;100277.91;6019554;23;45300;-91
2022/11/28 12:07:51;;;;;;;;;7.50;4.75;;;;;16.33;80.83;100210.03;6119597;23;45212;-93
2022/11/28 12:10:21;;;;;;;;;3.75;2.50;;;;;15.90;81.16;100189.97;6154686;23;47057;-93
2022/11/28 12:12:46;;;;;;;;;3.00;3.00;;;;;16.41;82.53;100340.34;6165200;23;45238;-92
2022/11/28 12:15:18;;;;;;;;;4.00;4.00;;;;;15.94;82.12;100287.47;6191243;23;45258;-91
2022/11/28 12:18:05;;;;;;;;;7.50;4.50;;;;;15.58;83.29;100232.28;6223886;22;45528;-93
2022/11/28 12:20:50;;;;;;;;;4.50;3.25;;;;;15.67;82.79;100277.16;6195110;22;46435;-92
2022/11/28 12:23:46;;;;;;;;;3.00;2.25;;;;;16.16;81.95;100340.66;6224273;22;44809;-88
2022/11/28 12:26:33;;;;;;;;;2.50;2.50;;;;;15.75;80.81;100219.03;6215868;22;45238;-90
2022/11/28 12:29:28;;;;;;;;;3.75;3.75;;;;;16.61;80.45;100314.50;6195663;22;45179;-91
2022/11/28 12:31:58;;;;;;;;;5.50;2.75;;;;;16.72;79.87;100316.63;6194797;22;46867;-91
2022/11/28 12:35:09;;;;;;;;;4.25;3.25;;;;;15.89;79.19;100169.59;6199167;22;45393;-91
2022/11/28 12:37:58;;;;;;;;;5.00;3.00;;;;;16.23;79.63;100262.13;6204088;22;45189;-90
2022/11/28 12:40:34;;;;;;;;;4.00;3.00;;;;;16.45;80.52;100312.59;6195710;22;45484;-88
2022/11/28 12:43:29;;;;;;;;;3.00;2.00;;;;;16.33;80.68;100305.19;6190238;22;47616;-89
2022/11/28 12:46:08;;;;;;;;;2.00;2.00;;;;;16.20;81.01;100315.59;6189589;22;45465;-88
2022/11/28 12:48:50;;;;;;;;;5.25;3.25;;;;;14.60;81.66;100084.06;6224295;22;45207;-89
2022/11/28 12:51:31;;;;;;;;;3.50;3.50;;;;;15.87;82.34;100320.69;6238328;22;45375;-89
2022/11/28 12:54:05;;;;;;;;;1.75;1.75;;;;;14.62;82.57;100146.06;6226272;22;47049;-89
2022/11/28 12:56:40;;;;;;;;;3.75;2.25;;;;;15.36;83.08;100307.81;6253731;22;45273;-88
2022/11/28 12:59:18;;;;;;;;;2.00;2.00;;;;;14.90;83.37;100262.75;6255937;22;45248;-90
2022/11/28 13:02:26;;;;;;;;;2.00;2.00;;;;;13.87;84.50;100126.13;6222334;22;45179;-92
2022/11/28 13:05:10;;;;;;;;;6.50;3.25;;;;;13.97;83.77;100167.34;6157753;23;46589;-90
2022/11/28 13:08:03;;;;;;;;;2.25;2.25;;;;;14.01;84.15;100213.22;6155449;23;45978;-93
2022/11/28 13:11:03;;;;;;;;;3.00;2.00;;;;;13.73;84.61;100222.31;6156838;23;45426;-92
2022/11/28 13:13:33;;;;;;;;;4.00;3.00;;;;;14.18;84.58;100322.41;6129901;23;45610;-90
2022/11/28 13:16:20;;;;;;;;;4.00;3.00;;;;;14.06;84.98;100308.72;6161506;23;45560;-89
2022/11/28 13:18:54;;;;;;;;;3.25;3.25;;;;;12.55;84.22;100084.25;6162261;23;45315;-89
2022/11/28 13:21:41;;;;;;;;;3.50;2.00;;;;;13.82;84.81;100314.91;6156536;23;45574;-89
2022/11/28 13:24:35;;;;;;;;;2.00;2.00;;;;;13.68;85.58;100318.09;6151289;23;45485;-89
2022/11/28 13:27:38;;;;;;;;;3.50;2.00;;;;;12.86;85.74;100203.34;6154490;23;47348;-89
2022/11/28 13:30:15;;;;;;;;;3.25;2.50;;;;;13.46;85.88;100323.28;6154543;23;45438;-90
2022/11/28 13:32:53;;;;;;;;;2.75;2.75;;;;;12.61;86.17;100198.03;6153270;23;45458;-89
2022/11/28 13:35:18;;;;;;;;;4.00;2.25;;;;;12.31;86.10;100163.69;6157784;23;45328;-89
2022/11/28 13:37:57;;;;;;;;;1.50;1.00;;;;;12.93;86.56;100284.41;6163804;22;46433;-91
2022/11/28 13:40:26;;;;;;;;;1.50;1.25;;;;;13.16;86.26;100330.50;6220659;22;45397;-91
2022/11/28 13:43:19;;;;;;;;;1.00;1.00;;;;;13.10;86.82;100328.06;6226177;22;45291;-89
2022/11/28 13:45:47;;;;;;;;;0.25;0.25;;;;;11.27;85.74;100049.63;6258890;22;45345;-90
2022/11/28 13:48:38;;;;;;;;;1.25;1.00;;;;;12.94;86.64;100339.22;6223478;22;46817;-90
2022/11/28 13:51:10;;;;;;;;;3.00;2.00;;;;;12.85;86.50;100342.19;6218862;22;45413;-89
2022/11/28 13:53:35;;;;;;;;;5.50;2.75;;;;;11.95;86.05;100218.72;6224212;22;45187;-89
2022/11/28 13:56:04;;;;;;;;;2.00;2.00;;;;;12.70;86.75;100348.00;6246070;22;45572;-88
2022/11/28 13:58:57;;;;;;;;;2.00;2.00;;;;;12.59;86.85;100345.69;6221457;22;47503;-91
2022/11/28 14:01:44;;;;;;;;;2.75;2.00;;;;;11.34;87.75;100167.59;6221136;22;45346;-91
2022/11/28 14:04:16;;;;;;;;;1.25;1.25;;;;;12.36;87.75;100359.63;6221755;22;45353;-91
2022/11/28 14:06:49;;;;;;;;;2.25;2.25;;;;;11.89;86.88;100283.31;6250145;22;45479;-90
2022/11/28 14:09:15;;;;;;;;;2.00;2.00;;;;;12.24;87.62;100340.56;6247954;22;45328;-89
2022/11/28 14:11:59;;;;;;;;;3.00;1.75;;;;;12.22;87.35;100346.81;6253221;22;45261;-89
2022/11/28 14:14:38;;;;;;;;;1.00;1.00;;;;;12.21;87.35;100342.44;6233109;22;45173;-88
2022/11/28 14:17:22;;;;;;;;;2.00;2.00;;;;;12.24;87.24;100345.84;6222110;22;45326;-89
2022/11/28 14:20:17;;;;;;;;;1.50;1.00;;;;;12.27;87.61;100348.41;6218963;22;46477;-90
2022/11/28 14:22:52;;;;;;;;;0.25;0.25;;;;;12.25;87.96;100344.94;6240528;22;45344;-89
2022/11/28 14:25:25;;;;;;;;;3.00;3.00;;;;;11.62;87.04;100242.66;6245427;22;45363;-89
2022/11/28 14:27:58;;;;;;;;;0.00;0.00;;;;;11.49;86.82;100240.38;6218195;22;45261;-89
2022/11/28 14:30:38;;;;;;;;;1.25;1.00;;;;;12.18;87.46;100366.38;6224046;22;48153;-90
2022/11/28 14:33:18;;;;;;;;;3.50;3.00;;;;;11.14;86.58;100191.94;6224395;22;45308;-89
2022/11/28 14:35:49;;;;;;;;;1.00;1.00;;;;;12.11;86.16;100348.94;6220882;22;45270;-89
2022/11/28 14:38:30;;;;;;;;;3.50;3.00;;;;;12.05;86.77;100344.66;6221905;22;45319;-91
2022/11/28 14:40:58;;;;;;;;;2.25;2.00;;;;;12.00;86.60;100351.91;6229935;22;46658;-91
2022/11/28 14:43:26;;;;;;;;;0.75;0.75;;;;;11.97;87.08;100358.16;6223123;22;45411;-91
2022/11/28 14:46:14;;;;;;;;;1.00;1.00;;;;;11.96;87.39;100366.13;6226206;22;45191;-91
2022/11/28 14:49:01;;;;;;;;;1.75;1.50;;;;;11.16;87.11;100243.06;6219439;22;45423;-90
2022/11/28 14:51:44;;;;;;;;;2.00;1.00;;;;;11.90;87.51;100362.72;6245711;22;45991;-89
2022/11/28 14:54:32;;;;;;;;;3.25;2.50;;;;;11.88;87.27;100368.97;6224140;22;45350;-90
2022/11/28 14:56:58;;;;;;;;;2.00;2.00;;;;;11.86;88.02;100373.47;6231635;22;45270;-91